Flight Track Log - Related Links

Times and Time Zones

All times are in EDT time to prevent confusion due to time zone crossing. See the N75ZM flight status page for this flight to view local times or setup timezone preferences in your user account.

Time Position Orientation Groundspeed Altitude Reporting Facility
EDT Latitude Longitude Course Direction KTS MPH feet Rate Location/Type
Thu 10:03:00 PM 32.9495 -80.2725 285° West  Level FlightAware Approximate
Thu 10:04:00 PM 32.9585 -80.3131 285° West  Level FlightAware Approximate
Thu 10:05:00 PM 32.9678 -80.3535 292° West  Level FlightAware Approximate
Thu 10:06:00 PM 32.9809 -80.3926 292° West  Level FlightAware Approximate
Thu 10:07:00 PM 32.9911 -80.4328 286° West  Level FlightAware Approximate
Thu 10:08:00 PM 33.0006 -80.4733 286° West  Level FlightAware Approximate
Thu 10:08:16 PM 33.0381 -80.4269 286° West 149 171 8,100  Level Jacksonville Center
Thu 10:09:00 PM 33.0101 -80.5137 286° West  Level FlightAware Approximate
Thu 10:09:15 PM 33.0472 -80.4714 284° West 149 171 8,100  Level Jacksonville Center
Thu 10:10:00 PM 33.0196 -80.5542 286° West  Level FlightAware Approximate
Thu 10:10:15 PM 33.0586 -80.5183 286° West 149 171 8,100  Level Jacksonville Center
Thu 10:11:00 PM 33.0290 -80.5947 286° West  Level FlightAware Approximate
Thu 10:11:16 PM 33.0700 -80.5650 286° West 149 171 8,100  Level Jacksonville Center
Thu 10:12:00 PM 33.0385 -80.6352 286° West  Level FlightAware Approximate
Thu 10:12:15 PM 33.0811 -80.6119 286° West 149 171 8,100  Level Jacksonville Center
Thu 10:13:00 PM 33.0480 -80.6757 286° West  Level FlightAware Approximate
Thu 10:13:16 PM 33.0925 -80.6586 286° West 144 166 8,100  Level Jacksonville Center
Thu 10:14:16 PM 33.1017 -80.7081 282° West 144 166 8,100  Level Jacksonville Center
Thu 10:15:15 PM 33.1128 -80.7547 286° West 144 166 8,100  Level Jacksonville Center
Thu 10:16:15 PM 33.1242 -80.8017 286° West 144 166 8,100  Level Jacksonville Center
Thu 10:17:16 PM 33.1353 -80.8486 286° West 144 166 8,100  Level Jacksonville Center
Thu 10:18:16 PM 33.1464 -80.8931 287° West 144 166 8,100  Level Jacksonville Center
Thu 10:19:16 PM 33.1578 -80.9422 285° West 144 166 8,100  Level Jacksonville Center
Thu 10:20:15 PM 33.1667 -80.9892 283° West 144 166 8,100  Level Jacksonville Center
Thu 10:21:16 PM 33.1778 -81.0361 286° West 144 166 8,100  Level Jacksonville Center
Thu 10:22:16 PM 33.1892 -81.0856 285° West 144 166 8,100  Level Jacksonville Center
Thu 10:23:16 PM 33.2003 -81.1325 286° West 144 166 8,100  Level Jacksonville Center
Thu 10:25:00 PM 33.2157 -81.2098 283° West  Level FlightAware Approximate
Thu 10:32:00 PM 33.2794 -81.5216 285° West  Level FlightAware Approximate
Thu 10:33:00 PM 33.2896 -81.5658 285° West  Level FlightAware Approximate
Thu 10:34:00 PM 33.2998 -81.6100 285° West  Level FlightAware Approximate
Thu 10:35:00 PM 33.3100 -81.6542 285° West  Level FlightAware Approximate
Thu 10:36:00 PM 33.3200 -81.6985 285° West  Level FlightAware Approximate
Thu 10:37:00 PM 33.3297 -81.7429 285° West  Level FlightAware Approximate
Thu 10:38:00 PM 33.3393 -81.7873 285° West  Level FlightAware Approximate
Thu 10:39:00 PM 33.3490 -81.8317 285° West  Level FlightAware Approximate
Thu 10:40:00 PM 33.3586 -81.8762 285° West  Level FlightAware Approximate
Thu 10:41:00 PM 33.3683 -81.9206 285° West  Level FlightAware Approximate
Thu 10:42:00 PM 33.3779 -81.9651 285° West  Level FlightAware Approximate
Thu 10:43:00 PM 33.3875 -82.0095 285° West  Level FlightAware Approximate
Thu 10:44:00 PM 33.3970 -82.0540 284° West  Level FlightAware Approximate
Thu 10:45:00 PM 33.4066 -82.0985 284° West  Level FlightAware Approximate
Thu 10:46:00 PM 33.4161 -82.1430 284° West  Level FlightAware Approximate
Thu 10:47:00 PM 33.4257 -82.1874 284° West  Level FlightAware Approximate
Thu 10:48:00 PM 33.4352 -82.2319 284° West  Level FlightAware Approximate
Thu 10:49:00 PM 33.4447 -82.2765 284° West  Level FlightAware Approximate
Thu 10:50:00 PM 33.4542 -82.3210 284° West  Level FlightAware Approximate
Thu 10:51:00 PM 33.4636 -82.3655 284° West  Level FlightAware Approximate
Thu 10:52:00 PM 33.4731 -82.4100 284° West  Level FlightAware Approximate
Thu 10:53:00 PM 33.4825 -82.4546 284° West  Level FlightAware Approximate
Thu 10:54:00 PM 33.4919 -82.4992 284° West  Level FlightAware Approximate
Thu 10:55:00 PM 33.5013 -82.5437 284° West  Level FlightAware Approximate
Thu 10:55:41 PM 33.5492 -82.7253 284° West 155 178 8,100  Level Atlanta Center
Thu 10:56:00 PM 33.5107 -82.5883 284° West  Level FlightAware Approximate
Thu 10:56:41 PM 33.5603 -82.7750 285° West 155 178 8,100  Level Atlanta Center
Thu 10:57:00 PM 33.5201 -82.6329 284° West  Level FlightAware Approximate
Thu 10:57:41 PM 33.5692 -82.8222 283° West 160 184 8,100  Level Atlanta Center
Thu 10:58:00 PM 33.5294 -82.6775 284° West  Level FlightAware Approximate
Thu 10:58:41 PM 33.5778 -82.8719 282° West 160 184 8,100  Level Atlanta Center
Thu 10:59:00 PM 33.5388 -82.7221 284° West  Level FlightAware Approximate
Thu 10:59:41 PM 33.5889 -82.9217 285° West 160 184 8,100  Level Atlanta Center
Thu 11:00:00 PM 33.5481 -82.7667 284° West  Level FlightAware Approximate
Thu 11:00:41 PM 33.5997 -82.9689 285° West 160 184 8,100  Level Atlanta Center
Thu 11:01:00 PM 33.5574 -82.8114 284° West  Level FlightAware Approximate
Thu 11:01:41 PM 33.6106 -83.0186 285° West 160 184 8,100  Level Atlanta Center
Thu 11:02:41 PM 33.6192 -83.0658 282° West 160 184 8,100  Level Atlanta Center
Thu 11:03:41 PM 33.6300 -83.1158 285° West 160 184 8,100  Level Atlanta Center
Thu 11:04:41 PM 33.6408 -83.1656 285° West 160 184 8,100  Level Atlanta Center
Thu 11:05:41 PM 33.6517 -83.2153 285° West 160 184 8,100  Level Atlanta Center
Thu 11:06:41 PM 33.6603 -83.2650 282° West 160 184 8,100  Level Atlanta Center
Thu 11:07:41 PM 33.6731 -83.3150 287° West 160 184 8,100  Level Atlanta Center
Thu 11:08:41 PM 33.6839 -83.3647 285° West 160 184 8,100  Level Atlanta Center
Thu 11:09:41 PM 33.6925 -83.4147 282° West 160 184 8,100  Level Atlanta Center
Thu 11:10:41 PM 33.7031 -83.4619 285° West 160 184 8,100  Level Atlanta Center
Thu 11:11:41 PM 33.7139 -83.5094 285° West 160 184 8,100  Level Atlanta Center
Thu 11:12:41 PM 33.7244 -83.5567 285° West 160 184 8,100 50 Level Atlanta Center
Thu 11:13:41 PM 33.7350 -83.6142 282° West 160 184 8,200  Climbing Atlanta Center
Thu 11:14:41 PM 33.7456 -83.6617 285° West 160 184 8,100 -300 Descending Atlanta Center
Thu 11:15:41 PM 33.7564 -83.7189 283° West 160 184 7,600 -500 Descending Atlanta Center
Thu 11:16:41 PM 33.7689 -83.7739 285° West 160 184 7,100 -500 Descending Atlanta Center
Thu 11:17:41 PM 33.7817 -83.8289 286° West 165 190 6,600 -500 Descending Atlanta Center
Thu 11:18:41 PM 33.7919 -83.8839 283° West 165 190 6,100 -500 Descending Atlanta Center
Thu 11:19:41 PM 33.8047 -83.9414 285° West 170 196 5,600 -500 Descending Atlanta Center
Thu 11:20:41 PM 33.8150 -83.9989 282° West 176 203 5,100 -500 Descending Atlanta Center

Login

Don't have an account? Register now (free) for customized features, flight alerts, and more!